Time;durP1;ratioP1;P1;durP2;ratioP2;P2;SDS_P1;SDS_P2;PMS_P1;PMS_P2;Temp;Humidity;BMP_temperature;BMP_pressure;BME280_temperature;BME280_humidity;BME280_pressure;Samples;Min_cycle;Max_cycle;Signal;HPM_P1;HPM_P2
2022/08/22 00:01:22;;;;;;;13.00;7.38;;;28.10;62.70;;;;;;5073422;28;20048;-73
2022/08/22 00:04:16;;;;;;;9.93;6.65;;;28.10;62.70;;;;;;5011908;28;20042;-73
2022/08/22 00:07:18;;;;;;;9.07;7.35;;;28.30;62.70;;;;;;5030817;28;20064;-74
2022/08/22 00:09:54;;;;;;;11.30;7.20;;;28.30;62.70;;;;;;5030749;28;20042;-74
2022/08/22 00:12:53;;;;;;;9.25;6.72;;;28.20;62.60;;;;;;5030607;28;20340;-73
2022/08/22 00:15:30;;;;;;;9.75;6.88;;;28.20;62.60;;;;;;5030594;28;20073;-73
2022/08/22 00:18:12;;;;;;;9.05;7.40;;;28.20;62.60;;;;;;5030659;28;20549;-73
2022/08/22 00:20:52;;;;;;;10.07;6.47;;;28.10;62.70;;;;;;5030360;28;20048;-73
2022/08/22 00:23:29;;;;;;;10.43;7.13;;;28.10;62.70;;;;;;5030553;28;20026;-73
2022/08/22 00:26:35;;;;;;;9.38;7.07;;;28.10;62.70;;;;;;5013962;28;20498;-73
2022/08/22 00:29:38;;;;;;;9.05;6.60;;;28.10;62.70;;;;;;4951711;29;20050;-73
2022/08/22 00:32:30;;;;;;;10.65;7.20;;;28.20;62.70;;;;;;4952476;29;20047;-73
2022/08/22 00:35:24;;;;;;;15.35;7.00;;;28.10;62.80;;;;;;4952301;28;20543;-73
2022/08/22 00:38:08;;;;;;;9.80;6.53;;;28.10;62.90;;;;;;4951652;29;20058;-73
2022/08/22 00:41:00;;;;;;;7.40;6.03;;;28.00;62.90;;;;;;4981735;28;20042;-73
2022/08/22 00:43:44;;;;;;;7.97;6.40;;;27.90;62.30;;;;;;4993977;28;20045;-73
2022/08/22 00:46:21;;;;;;;7.35;5.75;;;28.00;63.00;;;;;;5010442;28;20037;-73
2022/08/22 00:49:03;;;;;;;6.90;6.20;;;28.00;63.00;;;;;;5010510;28;20041;-73
2022/08/22 00:51:51;;;;;;;9.07;7.30;;;28.00;63.00;;;;;;5010273;28;20479;-73
2022/08/22 00:54:20;;;;;;;9.90;7.03;;;28.00;63.00;;;;;;5010260;28;20038;-73
2022/08/22 00:57:20;;;;;;;7.70;6.78;;;28.00;63.00;;;;;;5010177;28;20033;-72
2022/08/22 00:59:58;;;;;;;8.52;6.50;;;28.00;63.30;;;;;;5010315;28;20062;-73
2022/08/22 01:02:42;;;;;;;9.50;6.75;;;27.90;62.60;;;;;;5024906;28;20042;-72
2022/08/22 01:05:27;;;;;;;8.98;6.80;;;28.00;63.20;;;;;;5054526;28;20028;-73
2022/08/22 01:08:01;;;;;;;12.00;7.70;;;28.00;63.10;;;;;;5072079;28;20056;-73
2022/08/22 01:10:48;;;;;;;9.15;7.28;;;28.20;63.10;;;;;;5072085;28;20043;-73
2022/08/22 01:13:20;;;;;;;9.90;7.35;;;28.00;63.20;;;;;;5072013;28;20066;-73
2022/08/22 01:15:49;;;;;;;8.20;6.95;;;28.00;63.10;;;;;;5072131;28;20044;-73
2022/08/22 01:18:15;;;;;;;12.30;7.13;;;28.10;63.10;;;;;;5071851;28;20105;-73
2022/08/22 01:21:02;;;;;;;8.70;7.72;;;28.10;63.10;;;;;;5071844;28;20470;-73
2022/08/22 01:23:44;;;;;;;8.77;6.50;;;28.00;63.10;;;;;;5071531;28;20032;-73
2022/08/22 01:26:31;;;;;;;11.82;7.22;;;28.20;63.20;;;;;;5071648;28;20032;-73
2022/08/22 01:29:30;;;;;;;11.48;7.13;;;28.10;63.20;;;;;;5071622;28;20044;-73
2022/08/22 01:32:35;;;;;;;9.70;6.53;;;28.10;63.20;;;;;;5071121;28;20032;-73
2022/08/22 01:35:24;;;;;;;9.70;6.47;;;28.10;63.20;;;;;;5071221;28;20103;-73
2022/08/22 01:38:21;;;;;;;8.15;6.80;;;28.10;63.20;;;;;;4989465;28;20046;-73
2022/08/22 01:41:15;;;;;;;9.30;6.57;;;28.20;63.10;;;;;;4989539;28;20106;-73
2022/08/22 01:43:44;;;;;;;11.32;6.55;;;28.20;63.00;;;;;;4989556;28;20042;-73
2022/08/22 01:46:16;;;;;;;10.38;7.00;;;28.10;63.00;;;;;;4989571;28;20038;-74
2022/08/22 01:49:15;;;;;;;9.63;6.13;;;28.20;63.00;;;;;;4976080;28;20360;-74
2022/08/22 01:51:53;;;;;;;13.30;6.70;;;28.20;62.90;;;;;;4954760;29;20321;-73
2022/08/22 01:54:41;;;;;;;10.90;6.80;;;28.20;62.80;;;;;;4955106;29;20546;-73
2022/08/22 01:57:09;;;;;;;9.60;6.53;;;28.20;62.90;;;;;;4955110;29;20044;-73
2022/08/22 01:59:42;;;;;;;6.57;5.85;;;28.20;63.00;;;;;;4955215;29;20220;-73
2022/08/22 02:02:14;;;;;;;7.03;5.50;;;28.20;63.00;;;;;;4954800;29;20528;-73
2022/08/22 02:04:58;;;;;;;6.13;5.10;;;28.20;62.90;;;;;;4954987;29;20039;-73
2022/08/22 02:07:53;;;;;;;6.28;5.38;;;28.30;62.90;;;;;;4954727;29;20031;-73
2022/08/22 02:11:03;;;;;;;7.53;5.70;;;28.20;62.80;;;;;;4954611;29;20058;-74
2022/08/22 02:13:51;;;;;;;7.22;5.63;;;28.30;62.70;;;;;;4935572;29;20055;-73
2022/08/22 02:16:36;;;;;;;7.80;5.55;;;28.30;62.70;;;;;;4957854;28;20563;-74
2022/08/22 02:19:15;;;;;;;10.13;6.22;;;28.20;62.70;;;;;;4974030;28;20043;-73
2022/08/22 02:21:44;;;;;;;7.57;5.53;;;28.20;62.60;;;;;;4973634;28;20039;-73
2022/08/22 02:24:35;;;;;;;10.10;6.25;;;28.30;62.50;;;;;;4974027;28;20130;-73
2022/08/22 02:27:30;;;;;;;7.00;5.88;;;28.30;62.50;;;;;;4973945;28;20031;-74
2022/08/22 02:30:11;;;;;;;8.57;5.82;;;28.30;62.30;;;;;;5012787;28;20058;-73
2022/08/22 02:32:40;;;;;;;7.63;5.55;;;28.30;62.30;;;;;;5012821;28;20034;-73
2022/08/22 02:35:20;;;;;;;10.80;6.22;;;28.40;62.30;;;;;;5012911;28;20176;-73
2022/08/22 02:37:54;;;;;;;7.57;6.45;;;28.30;62.40;;;;;;5012729;28;20053;-73
2022/08/22 02:40:20;;;;;;;9.38;5.63;;;28.30;62.30;;;;;;5012661;28;20033;-74
2022/08/22 02:42:59;;;;;;;7.50;6.07;;;28.40;62.10;;;;;;5012698;28;20503;-73
2022/08/22 02:45:48;;;;;;;6.78;6.07;;;28.60;62.00;;;;;;5012408;28;20046;-73
2022/08/22 02:48:14;;;;;;;10.43;7.22;;;28.50;61.80;;;;;;5012667;28;20065;-73
2022/08/22 02:50:52;;;;;;;8.43;6.47;;;28.40;61.40;;;;;;5045686;28;20076;-73
2022/08/22 02:53:36;;;;;;;11.73;6.40;;;28.50;61.40;;;;;;5076637;28;20035;-73
2022/08/22 02:56:15;;;;;;;11.10;5.68;;;28.50;61.50;;;;;;5094880;28;20088;-73
2022/08/22 02:58:55;;;;;;;11.60;6.35;;;28.40;61.50;;;;;;5093868;28;20473;-73
2022/08/22 03:01:36;;;;;;;11.80;6.18;;;28.40;61.50;;;;;;5094597;28;20028;-73
2022/08/22 03:04:29;;;;;;;7.45;5.95;;;28.40;61.90;;;;;;5095006;28;20051;-74
2022/08/22 03:07:18;;;;;;;8.23;5.68;;;28.40;61.90;;;;;;5094760;28;20071;-73
2022/08/22 03:09:44;;;;;;;7.65;6.63;;;28.30;62.10;;;;;;5092170;28;20044;-73
2022/08/22 03:12:25;;;;;;;8.63;6.50;;;28.40;62.10;;;;;;5094536;28;20058;-73
2022/08/22 03:15:00;;;;;;;8.90;6.65;;;28.30;62.20;;;;;;5076746;28;20032;-73
2022/08/22 03:17:32;;;;;;;10.98;6.38;;;28.30;62.20;;;;;;5094220;28;20111;-73
2022/08/22 03:20:12;;;;;;;9.80;6.60;;;28.30;62.30;;;;;;5094333;28;20496;-74
2022/08/22 03:22:58;;;;;;;8.82;6.45;;;28.30;62.20;;;;;;5094380;28;20468;-73
2022/08/22 03:25:53;;;;;;;8.52;6.60;;;28.30;62.20;;;;;;5076325;28;20090;-73
2022/08/22 03:28:25;;;;;;;9.52;6.63;;;28.30;62.20;;;;;;5087739;28;20054;-73
2022/08/22 03:31:08;;;;;;;8.02;6.20;;;28.30;62.20;;;;;;5073754;28;20114;-74
2022/08/22 03:33:34;;;;;;;11.05;6.60;;;28.20;62.10;;;;;;5074155;28;20021;-74
2022/08/22 03:36:25;;;;;;;9.18;6.53;;;28.40;62.20;;;;;;5073814;28;20033;-73
2022/08/22 03:39:26;;;;;;;7.50;5.85;;;28.30;62.30;;;;;;4992057;28;20507;-73
2022/08/22 03:42:07;;;;;;;8.25;5.93;;;28.20;62.30;;;;;;4989959;28;20034;-74
2022/08/22 03:44:52;;;;;;;6.85;5.95;;;28.20;62.30;;;;;;4991911;28;20051;-73
2022/08/22 03:47:21;;;;;;;6.95;6.00;;;28.30;62.30;;;;;;4991940;28;20412;-73
2022/08/22 03:50:10;;;;;;;10.10;6.90;;;28.10;62.30;;;;;;4991639;28;20038;-73
2022/08/22 03:55:45;;;;;;;8.80;6.18;;;28.10;62.60;;;;;;4952979;29;20035;-73
2022/08/22 03:58:29;;;;;;;14.73;6.20;;;28.10;62.50;;;;;;4952828;29;20050;-73
2022/08/22 04:00:58;;;;;;;7.50;5.60;;;28.10;62.50;;;;;;4953016;29;20035;-73
2022/08/22 04:03:51;;;;;;;13.68;6.05;;;28.20;62.40;;;;;;4952559;29;20051;-73
2022/08/22 04:06:42;;;;;;;12.10;6.30;;;28.30;62.10;;;;;;4952740;29;20539;-73
2022/08/22 04:09:29;;;;;;;11.30;6.18;;;28.30;61.80;;;;;;4952695;29;20043;-73
2022/08/22 04:12:12;;;;;;;7.60;5.30;;;28.30;61.40;;;;;;4952321;28;20416;-73
2022/08/22 04:14:43;;;;;;;;;;;28.40;61.30;;;;;;4953120;29;20122;-73
2022/08/22 04:17:54;;;;;;;9.02;6.18;;;28.50;61.30;;;;;;5030874;28;19944;-74
2022/08/22 04:20:40;;;;;;;8.77;6.38;;;28.40;61.20;;;;;;4952292;29;20054;-73
2022/08/22 04:23:57;;;;;;;8.88;6.20;;;28.50;61.30;;;;;;4952572;29;20493;-73
2022/08/22 04:26:55;;;;;;;7.93;5.68;;;28.50;61.30;;;;;;4914449;29;20574;-73
2022/08/22 04:29:32;;;;;;;9.63;7.25;;;28.40;61.40;;;;;;4878996;29;20057;-73
2022/08/22 04:32:16;;;;;;;16.88;6.25;;;28.40;61.50;;;;;;4879744;29;20479;-74
2022/08/22 04:35:08;;;;;;;11.80;7.10;;;28.30;61.40;;;;;;4895333;29;20522;-73
2022/08/22 04:37:55;;;;;;;12.48;6.85;;;28.40;61.40;;;;;;4895459;29;20044;-74
2022/08/22 04:40:42;;;;;;;10.30;7.30;;;28.40;61.40;;;;;;4894985;29;20124;-75
2022/08/22 04:43:15;;;;;;;10.23;7.35;;;28.30;61.40;;;;;;4895001;29;20556;-73
2022/08/22 04:46:20;;;;;;;11.20;6.97;;;28.30;61.40;;;;;;4894848;29;20052;-74
2022/08/22 04:49:27;;;;;;;8.27;6.72;;;28.40;61.50;;;;;;4894929;29;20175;-73
2022/08/22 04:52:14;;;;;;;10.68;6.93;;;28.30;61.40;;;;;;4839047;29;20571;-74
2022/08/22 04:54:56;;;;;;;8.90;6.88;;;28.30;61.30;;;;;;4839327;29;20062;-73
2022/08/22 04:57:44;;;;;;;15.43;7.80;;;28.40;61.30;;;;;;4852510;29;20410;-73
2022/08/22 05:00:12;;;;;;;11.10;7.03;;;28.30;61.20;;;;;;4857639;29;20056;-73
2022/08/22 05:02:45;;;;;;;12.68;7.18;;;28.40;61.30;;;;;;4884641;29;20399;-73
2022/08/22 05:05:19;;;;;;;13.15;6.90;;;28.40;61.20;;;;;;4934505;28;20057;-73
2022/08/22 05:07:50;;;;;;;11.23;6.78;;;28.30;61.10;;;;;;4990397;28;20039;-74
2022/08/22 05:10:26;;;;;;;12.47;5.93;;;28.50;61.10;;;;;;4990005;28;20038;-74
2022/08/22 05:13:10;;;;;;;7.70;6.38;;;28.40;61.10;;;;;;4990362;28;20046;-73
2022/08/22 05:15:40;;;;;;;11.38;6.68;;;28.40;61.00;;;;;;4958093;28;20517;-73
2022/08/22 05:18:11;;;;;;;9.88;7.03;;;28.60;61.00;;;;;;4990357;28;20049;-74
2022/08/22 05:20:39;;;;;;;11.07;6.50;;;28.40;61.00;;;;;;4990121;28;20027;-74
2022/08/22 05:23:15;;;;;;;8.45;6.68;;;28.50;61.00;;;;;;4989464;28;20042;-74
2022/08/22 05:25:44;;;;;;;13.15;7.25;;;28.50;61.00;;;;;;4989893;28;20049;-73
2022/08/22 05:28:35;;;;;;;9.45;7.60;;;28.50;60.90;;;;;;5033517;28;20153;-73
2022/08/22 05:31:27;;;;;;;13.68;7.07;;;28.60;60.90;;;;;;5071192;28;20040;-73
2022/08/22 05:34:00;;;;;;;12.07;7.88;;;28.70;60.80;;;;;;4989544;28;20081;-74
2022/08/22 05:36:37;;;;;;;11.00;8.32;;;28.60;60.80;;;;;;4989572;28;20043;-73
2022/08/22 05:39:18;;;;;;;8.80;7.22;;;28.50;60.80;;;;;;4989811;28;20050;-73
2022/08/22 05:41:46;;;;;;;10.75;7.57;;;28.50;60.70;;;;;;4973697;28;20073;-74
2022/08/22 05:44:30;;;;;;;11.50;8.27;;;28.60;60.70;;;;;;4989837;28;20108;-74
2022/08/22 05:47:00;;;;;;;11.95;7.50;;;28.60;60.70;;;;;;4990186;28;20038;-73
2022/08/22 05:49:31;;;;;;;14.93;8.25;;;28.50;60.70;;;;;;4989715;28;20038;-74
2022/08/22 05:52:31;;;;;;;10.43;7.70;;;28.60;60.70;;;;;;4989917;28;20034;-73
2022/08/22 05:55:29;;;;;;;10.40;8.13;;;28.60;60.80;;;;;;4989951;28;20077;-74
2022/08/22 05:58:37;;;;;;;12.77;8.02;;;28.50;60.80;;;;;;4973458;28;20590;-74
2022/08/22 06:01:20;;;;;;;11.75;8.07;;;28.50;60.80;;;;;;4951263;29;20087;-74
2022/08/22 06:04:05;;;;;;;10.27;8.40;;;28.50;60.70;;;;;;4951083;29;20126;-74
2022/08/22 06:06:41;;;;;;;12.55;8.10;;;28.40;60.80;;;;;;4951183;29;20043;-73
2022/08/22 06:09:29;;;;;;;9.65;8.18;;;28.40;60.90;;;;;;4951105;29;20047;-73
2022/08/22 06:12:20;;;;;;;9.98;8.07;;;28.40;60.90;;;;;;5024255;28;20133;-73
2022/08/22 06:15:17;;;;;;;13.30;8.00;;;28.40;60.80;;;;;;5028754;28;20065;-73
2022/08/22 06:17:47;;;;;;;9.60;7.60;;;28.60;60.90;;;;;;4950891;29;20043;-74
2022/08/22 06:20:19;;;;;;;11.85;7.30;;;28.60;60.80;;;;;;4934918;29;20507;-73
2022/08/22 06:22:59;;;;;;;10.40;8.17;;;28.60;60.80;;;;;;4950903;29;20051;-73
2022/08/22 06:25:32;;;;;;;8.55;7.20;;;28.50;60.80;;;;;;4950961;29;20292;-74
2022/08/22 06:28:06;;;;;;;10.85;8.23;;;28.50;60.70;;;;;;4957740;28;20058;-74
2022/08/22 06:30:34;;;;;;;10.30;6.72;;;28.50;60.80;;;;;;5005935;28;20053;-73
2022/08/22 06:33:08;;;;;;;11.35;6.93;;;28.50;60.80;;;;;;4989695;28;20034;-73
2022/08/22 06:38:33;;;;;;;10.15;7.20;;;28.50;60.70;;;;;;5012769;28;20874;-74
2022/08/22 06:41:07;;;;;;;9.88;5.88;;;28.50;60.70;;;;;;5012788;28;20488;-74
2022/08/22 06:43:41;;;;;;;11.25;6.70;;;28.70;60.70;;;;;;4996213;28;20395;-74
2022/08/22 06:46:08;;;;;;;12.02;6.60;;;28.60;60.70;;;;;;5012743;28;20103;-74
2022/08/22 06:48:36;;;;;;;9.57;7.22;;;28.60;60.60;;;;;;5012481;28;20065;-73
2022/08/22 06:51:05;;;;;;;9.82;5.80;;;28.70;60.60;;;;;;5012420;28;20089;-73
2022/08/22 06:53:43;;;;;;;13.02;6.95;;;28.50;60.60;;;;;;5017689;28;20034;-74
2022/08/22 06:56:11;;;;;;;10.52;6.13;;;28.70;60.60;;;;;;5074824;28;20039;-72
2022/08/22 06:58:42;;;;;;;13.13;6.85;;;28.60;60.60;;;;;;5074454;28;20485;-74
2022/08/22 07:01:15;;;;;;;8.65;5.88;;;28.70;60.60;;;;;;5074515;28;20135;-73
2022/08/22 07:03:52;;;;;;;10.20;6.68;;;28.70;60.60;;;;;;5056712;28;20036;-73
2022/08/22 07:06:29;;;;;;;9.27;6.75;;;28.50;60.70;;;;;;5074664;28;20036;-74
2022/08/22 07:08:56;;;;;;;14.80;6.32;;;28.50;60.60;;;;;;5074653;28;20066;-74
2022/08/22 07:11:27;;;;;;;9.93;5.68;;;28.60;60.60;;;;;;5074349;28;20048;-73
2022/08/22 07:14:01;;;;;;;15.45;7.32;;;28.50;60.60;;;;;;5056464;28;20044;-74
2022/08/22 07:16:41;;;;;;;13.77;7.35;;;28.50;60.60;;;;;;5074401;28;20059;-74
2022/08/22 07:19:20;;;;;;;12.00;6.95;;;28.50;60.70;;;;;;5074213;28;20524;-73
2022/08/22 07:21:48;;;;;;;12.02;7.60;;;28.60;60.70;;;;;;5074074;28;20032;-73
2022/08/22 07:24:18;;;;;;;15.55;6.93;;;28.50;60.70;;;;;;5073722;28;20174;-74
2022/08/22 07:27:16;;;;;;;12.82;7.07;;;28.50;60.70;;;;;;5073752;28;20032;-73
2022/08/22 07:29:53;;;;;;;14.88;6.88;;;28.50;60.70;;;;;;5074722;28;20148;-73
2022/08/22 07:32:26;;;;;;;7.38;6.03;;;28.50;60.70;;;;;;5050817;28;20045;-74
2022/08/22 07:35:04;;;;;;;8.23;5.82;;;28.60;60.70;;;;;;5050867;28;20482;-73
2022/08/22 07:38:12;;;;;;;15.15;5.88;;;28.60;60.70;;;;;;5034598;28;20033;-73
2022/08/22 07:41:05;;;;;;;7.65;5.90;;;28.60;60.70;;;;;;5034465;28;20036;-74
2022/08/22 07:43:41;;;;;;;10.77;5.40;;;28.60;60.70;;;;;;5051201;28;20037;-73
2022/08/22 07:46:25;;;;;;;12.00;5.53;;;28.70;60.70;;;;;;5017486;28;20037;-74
2022/08/22 07:49:04;;;;;;;8.02;5.60;;;28.70;60.70;;;;;;5051276;28;20088;-74
2022/08/22 07:51:35;;;;;;;7.60;5.03;;;28.60;60.70;;;;;;5051243;28;20524;-73
2022/08/22 07:54:06;;;;;;;9.55;5.30;;;28.70;60.70;;;;;;5050935;28;20036;-74
2022/08/22 07:56:38;;;;;;;7.00;5.32;;;28.60;60.70;;;;;;5051137;28;20170;-74
2022/08/22 07:59:17;;;;;;;9.20;4.80;;;28.70;60.70;;;;;;5050849;28;20053;-74
2022/08/22 08:01:51;;;;;;;9.95;4.90;;;28.70;60.70;;;;;;5034185;28;20720;-74
2022/08/22 08:04:23;;;;;;;7.60;5.25;;;28.70;60.70;;;;;;5070880;28;20051;-74
2022/08/22 08:06:53;;;;;;;8.80;4.17;;;28.60;60.70;;;;;;5073315;28;20609;-74
2022/08/22 08:09:20;;;;;;;9.15;3.83;;;28.60;60.70;;;;;;5072913;28;20040;-74
2022/08/22 08:11:51;;;;;;;9.70;4.43;;;28.60;60.70;;;;;;5055220;28;20055;-74
2022/08/22 08:14:20;;;;;;;11.60;4.40;;;28.60;60.70;;;;;;5072981;28;20043;-74
2022/08/22 08:17:06;;;;;;;5.30;3.33;;;28.60;60.70;;;;;;5073232;28;20044;-74
2022/08/22 08:19:37;;;;;;;17.23;5.10;;;28.60;60.70;;;;;;5055047;28;20089;-73
2022/08/22 08:22:04;;;;;;;6.20;3.92;;;28.50;60.70;;;;;;5072950;28;20041;-74
2022/08/22 08:24:36;;;;;;;7.72;3.88;;;28.60;60.70;;;;;;5072668;28;20107;-73
2022/08/22 08:29:55;;;;;;;16.48;3.90;;;28.50;60.80;;;;;;5072773;28;20098;-74
2022/08/22 08:32:23;;;;;;;11.82;4.47;;;28.40;60.80;;;;;;5072775;28;20414;-73
2022/08/22 08:34:51;;;;;;;7.45;3.45;;;28.60;60.80;;;;;;5072490;28;20035;-73
2022/08/22 08:37:26;;;;;;;8.52;3.88;;;28.50;60.80;;;;;;5072845;28;20036;-73
2022/08/22 08:39:58;;;;;;;7.82;3.50;;;28.50;60.80;;;;;;5072488;28;20068;-73
2022/08/22 08:45:57;;;;;;;16.10;4.50;;;28.50;60.80;;;;;;5072177;28;20530;-74
2022/08/22 08:48:51;;;;;;;8.55;4.00;;;28.50;60.80;;;;;;5054676;28;20044;-73
2022/08/22 08:51:35;;;;;;;7.93;4.45;;;28.50;60.80;;;;;;5071990;28;20045;-74
2022/08/22 08:54:25;;;;;;;10.65;4.53;;;28.70;60.80;;;;;;5054671;28;20041;-74
2022/08/22 08:57:35;;;;;;;12.88;3.70;;;28.70;60.80;;;;;;5071682;28;20059;-74
2022/08/22 09:00:19;;;;;;;12.80;4.38;;;28.60;60.70;;;;;;5072116;28;20036;-74
2022/08/22 09:02:52;;;;;;;16.73;3.92;;;28.60;60.70;;;;;;5054328;28;20036;-74
2022/08/22 09:05:30;;;;;;;16.83;4.97;;;28.60;60.70;;;;;;5072179;28;20055;-73
2022/08/22 09:08:31;;;;;;;8.70;3.70;;;28.60;60.70;;;;;;5071829;28;20107;-74
2022/08/22 09:11:05;;;;;;;16.30;4.10;;;28.60;60.70;;;;;;4974157;28;20093;-74
2022/08/22 09:13:58;;;;;;;14.07;3.97;;;28.60;60.80;;;;;;4990438;28;20050;-74
2022/08/22 09:17:11;;;;;;;9.43;3.58;;;28.70;60.80;;;;;;4990159;28;20120;-74
2022/08/22 09:19:43;;;;;;;4.00;3.00;;;28.60;60.70;;;;;;4951556;29;20716;-74
2022/08/22 09:22:32;;;;;;;13.67;4.00;;;28.50;60.80;;;;;;4951405;29;20496;-74
2022/08/22 09:25:24;;;;;;;16.15;3.63;;;28.60;60.80;;;;;;4950953;29;20285;-74
2022/08/22 09:28:01;;;;;;;18.73;3.75;;;28.50;60.70;;;;;;4952099;28;20081;-73
2022/08/22 09:30:57;;;;;;;9.20;3.30;;;28.60;60.90;;;;;;4989876;28;20053;-74
2022/08/22 09:33:41;;;;;;;17.58;3.78;;;28.50;60.90;;;;;;4989973;28;20121;-74
2022/08/22 09:36:28;;;;;;;13.20;4.07;;;28.60;60.90;;;;;;4989916;28;20050;-74
2022/08/22 09:39:02;;;;;;;20.88;4.28;;;28.50;60.80;;;;;;4990075;28;20513;-74
2022/08/22 09:42:10;;;;;;;14.65;4.60;;;28.60;60.90;;;;;;4989666;28;20046;-74
2022/08/22 09:45:17;;;;;;;18.63;4.97;;;28.50;60.90;;;;;;4951094;29;20539;-74
2022/08/22 09:48:04;;;;;;;17.25;3.88;;;28.70;60.90;;;;;;4976213;28;20129;-73
2022/08/22 09:51:15;;;;;;;11.85;3.30;;;28.60;60.90;;;;;;4989805;28;20125;-74
2022/08/22 09:54:20;;;;;;;18.95;3.50;;;28.60;60.90;;;;;;4970877;28;20044;-74
2022/08/22 09:57:00;;;;;;;12.50;3.78;;;28.60;60.90;;;;;;5009130;28;20050;-74
2022/08/22 09:59:36;;;;;;;20.92;3.47;;;28.60;60.90;;;;;;5009641;28;20121;-74
2022/08/22 10:02:19;;;;;;;14.25;3.88;;;28.60;60.90;;;;;;4993119;28;20124;-73
2022/08/22 10:05:05;;;;;;;18.60;4.25;;;28.70;60.90;;;;;;4992702;28;20100;-74
2022/08/22 10:08:01;;;;;;;17.65;3.72;;;28.60;60.80;;;;;;5009169;28;20041;-74
2022/08/22 10:10:47;;;;;;;10.10;3.28;;;28.60;60.80;;;;;;5013236;28;20054;-73
2022/08/22 10:13:24;;;;;;;11.27;3.17;;;28.70;60.80;;;;;;4997978;28;20431;-74
2022/08/22 10:16:06;;;;;;;8.82;2.83;;;28.50;60.80;;;;;;4996548;28;20042;-74
2022/08/22 10:19:05;;;;;;;13.32;3.92;;;28.70;60.80;;;;;;4996506;28;20848;-73
2022/08/22 10:21:45;;;;;;;15.23;3.67;;;28.60;60.80;;;;;;5022887;28;20071;-73
2022/08/22 10:24:41;;;;;;;9.15;3.45;;;28.50;60.90;;;;;;5074702;28;20029;-74
2022/08/22 10:27:14;;;;;;;12.63;3.25;;;28.60;60.90;;;;;;5074236;28;20063;-73
2022/08/22 10:30:02;;;;;;;13.68;3.97;;;28.60;60.90;;;;;;5074510;28;20098;-74
2022/08/22 10:33:00;;;;;;;17.83;3.83;;;28.60;60.90;;;;;;5074553;28;20035;-74
2022/08/22 10:35:31;;;;;;;9.52;3.55;;;28.50;60.90;;;;;;4992354;28;20562;-74
2022/08/22 10:37:57;;;;;;;11.30;3.88;;;28.50;60.90;;;;;;4992919;28;20160;-74
2022/08/22 10:40:40;;;;;;;11.23;3.53;;;28.50;60.90;;;;;;4992963;28;20141;-74
2022/08/22 10:43:11;;;;;;;;;;;28.50;60.90;;;;;;4993743;28;20034;-73
2022/08/22 10:45:44;;;;;;;7.05;3.03;;;28.60;60.90;;;;;;4992780;28;19917;-73
2022/08/22 10:48:10;;;;;;;7.60;3.80;;;28.60;61.00;;;;;;4992877;28;20357;-73
2022/08/22 10:50:48;;;;;;;11.15;3.85;;;28.60;61.00;;;;;;4992736;28;20117;-73
2022/08/22 10:53:34;;;;;;;9.13;2.95;;;28.50;61.00;;;;;;4956914;28;20482;-73
2022/08/22 10:56:10;;;;;;;11.00;3.65;;;28.50;61.00;;;;;;4957116;28;20447;-74
2022/08/22 10:58:49;;;;;;;11.73;3.00;;;28.50;61.00;;;;;;4973500;28;20458;-74
2022/08/22 11:01:17;;;;;;;9.20;3.10;;;28.50;61.00;;;;;;4973348;28;20041;-73
2022/08/22 11:04:04;;;;;;;11.45;2.95;;;28.70;61.00;;;;;;4973407;28;20051;-74
2022/08/22 11:06:45;;;;;;;14.82;3.00;;;28.70;60.90;;;;;;4973062;28;20118;-73
2022/08/22 11:09:27;;;;;;;14.65;3.88;;;28.50;60.90;;;;;;4973099;28;20614;-73
2022/08/22 11:12:22;;;;;;;15.43;3.10;;;28.60;60.90;;;;;;4986936;28;20390;-74
2022/08/22 11:15:17;;;;;;;14.20;3.10;;;28.60;60.90;;;;;;4953864;29;20126;-74
2022/08/22 11:17:49;;;;;;;13.52;3.35;;;28.60;60.90;;;;;;4953754;29;20075;-73
2022/08/22 11:20:25;;;;;;;9.47;3.07;;;28.50;60.90;;;;;;4952958;28;20035;-74
2022/08/22 11:23:13;;;;;;;4.40;2.72;;;28.50;60.90;;;;;;4953660;29;20333;-74
2022/08/22 11:25:59;;;;;;;8.68;3.58;;;28.60;60.90;;;;;;4992078;28;20038;-73
2022/08/22 11:28:46;;;;;;;9.68;3.70;;;28.50;60.90;;;;;;4920054;29;20076;-74
2022/08/22 11:31:43;;;;;;;12.18;3.63;;;28.50;60.90;;;;;;4934042;29;20127;-74
2022/08/22 11:34:41;;;;;;;10.85;3.30;;;28.60;60.90;;;;;;4934172;29;20047;-73
2022/08/22 11:37:25;;;;;;;9.70;3.05;;;28.60;60.90;;;;;;4933811;29;20047;-74
2022/08/22 11:40:03;;;;;;;12.65;2.95;;;28.50;61.00;;;;;;4933679;29;20126;-73
2022/08/22 11:42:47;;;;;;;6.97;2.90;;;28.60;61.00;;;;;;4895679;29;20178;-73
2022/08/22 11:45:19;;;;;;;12.27;3.40;;;28.60;61.00;;;;;;4896313;29;20048;-73
2022/08/22 11:48:01;;;;;;;9.00;2.92;;;28.60;61.00;;;;;;4895970;29;20123;-74
2022/08/22 11:50:33;;;;;;;10.77;3.80;;;28.60;61.00;;;;;;4899609;29;20056;-74
2022/08/22 11:53:56;;;;;;;5.65;2.72;;;28.70;61.00;;;;;;4915031;29;20032;-74
2022/08/22 11:56:35;;;;;;;11.05;3.28;;;28.60;61.00;;;;;;4840123;29;20038;-74
2022/08/22 11:59:31;;;;;;;5.57;3.25;;;28.50;61.00;;;;;;4840246;29;20046;-73
2022/08/22 12:02:00;;;;;;;8.18;3.08;;;28.60;61.00;;;;;;4840235;29;20416;-73
2022/08/22 12:04:51;;;;;;;10.90;2.90;;;28.70;61.00;;;;;;4826764;29;20053;-74
2022/08/22 12:07:29;;;;;;;6.32;3.03;;;28.60;61.00;;;;;;4895715;29;20052;-74
2022/08/22 12:10:06;;;;;;;9.73;3.30;;;28.60;61.00;;;;;;4895590;29;20494;-74
2022/08/22 12:12:51;;;;;;;6.38;3.10;;;28.70;61.00;;;;;;4900877;29;20540;-74
2022/08/22 12:15:38;;;;;;;8.65;3.17;;;28.60;60.90;;;;;;4952223;29;20392;-74
2022/08/22 12:18:25;;;;;;;8.15;2.85;;;28.60;60.90;;;;;;4952345;29;20035;-74
2022/08/22 12:21:20;;;;;;;9.55;3.63;;;28.60;60.90;;;;;;4952739;29;20039;-73
2022/08/22 12:23:58;;;;;;;8.73;2.88;;;28.60;60.80;;;;;;4952500;29;20041;-74
2022/08/22 12:26:52;;;;;;;17.50;3.13;;;28.60;60.90;;;;;;4975330;28;20045;-74
2022/08/22 12:29:40;;;;;;;12.23;2.67;;;28.50;61.00;;;;;;5074697;28;20151;-73
2022/08/22 12:33:02;;;;;;;9.70;2.80;;;28.60;60.90;;;;;;5072504;28;20048;-73
2022/08/22 12:35:34;;;;;;;14.32;2.83;;;28.50;60.90;;;;;;4990975;28;20092;-74
2022/08/22 12:38:38;;;;;;;6.93;2.70;;;28.60;60.90;;;;;;4990743;28;20096;-73
2022/08/22 12:41:28;;;;;;;16.95;3.58;;;28.50;61.00;;;;;;4991095;28;20050;-74
2022/08/22 12:43:57;;;;;;;6.15;3.03;;;28.50;61.00;;;;;;4952219;28;20050;-73
2022/08/22 12:46:37;;;;;;;12.38;3.10;;;28.50;61.00;;;;;;4951850;28;20059;-74
2022/08/22 12:49:12;;;;;;;10.48;2.75;;;28.60;61.00;;;;;;4952001;28;20408;-73
2022/08/22 12:51:53;;;;;;;6.20;2.83;;;28.60;61.00;;;;;;4951959;28;20170;-74
2022/08/22 12:54:30;;;;;;;9.73;2.85;;;28.50;61.00;;;;;;4952084;28;20118;-74
2022/08/22 12:57:15;;;;;;;6.03;2.88;;;28.60;61.00;;;;;;4951673;28;20556;-74
2022/08/22 12:59:44;;;;;;;7.55;3.47;;;28.50;61.00;;;;;;4935688;29;20070;-74
2022/08/22 13:02:33;;;;;;;8.52;2.80;;;28.50;61.00;;;;;;4951709;28;20109;-73
2022/08/22 13:05:16;;;;;;;16.33;3.00;;;28.50;61.00;;;;;;4958010;28;20479;-74
2022/08/22 13:07:42;;;;;;;;;;;28.70;61.00;;;;;;5010518;28;20554;-74
2022/08/22 13:10:14;;;;;;;10.88;3.33;;;28.60;61.00;;;;;;5010138;28;19921;-74
2022/08/22 13:12:51;;;;;;;17.90;3.03;;;28.60;61.00;;;;;;5010165;28;20029;-74
2022/08/22 13:15:19;;;;;;;14.05;2.95;;;28.60;60.90;;;;;;5009724;28;20104;-73
2022/08/22 13:17:48;;;;;;;7.68;2.75;;;28.60;60.90;;;;;;5009881;28;20061;-74
2022/08/22 13:20:28;;;;;;;9.13;3.53;;;28.50;60.90;;;;;;4996269;28;20124;-74
2022/08/22 13:22:57;;;;;;;16.20;2.55;;;28.50;60.90;;;;;;5054076;28;20508;-74
2022/08/22 13:25:29;;;;;;;11.40;3.08;;;28.60;60.90;;;;;;5071871;28;20041;-74
2022/08/22 13:28:01;;;;;;;11.10;2.72;;;28.70;60.90;;;;;;5054050;28;20044;-74
2022/08/22 13:30:37;;;;;;;6.85;2.90;;;28.50;60.90;;;;;;5071675;28;20032;-73
2022/08/22 13:33:13;;;;;;;7.65;3.00;;;28.60;61.00;;;;;;5072140;28;20040;-74
2022/08/22 13:35:52;;;;;;;12.38;2.85;;;28.50;60.90;;;;;;5071859;28;20036;-74
2022/08/22 13:38:22;;;;;;;9.98;3.00;;;28.50;60.90;;;;;;5071661;28;20424;-75
2022/08/22 13:40:51;;;;;;;6.22;2.53;;;28.50;60.90;;;;;;5071639;28;20059;-74
2022/08/22 13:43:22;;;;;;;7.28;2.50;;;28.60;60.90;;;;;;5071031;28;20029;-74
2022/08/22 13:45:58;;;;;;;13.07;3.30;;;28.60;61.00;;;;;;5071767;28;20037;-73
2022/08/22 13:48:46;;;;;;;6.57;2.72;;;28.60;61.00;;;;;;5071616;28;20496;-74
2022/08/22 13:51:46;;;;;;;8.77;2.50;;;28.60;61.00;;;;;;5071566;28;20032;-73
2022/08/22 13:54:14;;;;;;;7.90;2.33;;;28.50;61.00;;;;;;4989682;28;20050;-73
2022/08/22 13:56:54;;;;;;;5.82;2.20;;;28.60;61.00;;;;;;4989879;28;20153;-74
2022/08/22 13:59:37;;;;;;;17.58;3.20;;;28.50;61.00;;;;;;4989650;28;20116;-74
2022/08/22 14:02:15;;;;;;;9.93;2.47;;;28.50;61.00;;;;;;4989934;28;20074;-73
2022/08/22 14:04:41;;;;;;;5.47;2.17;;;28.60;61.00;;;;;;4989835;28;20490;-74
2022/08/22 14:07:07;;;;;;;8.90;2.55;;;28.60;61.00;;;;;;4989754;28;20038;-74
2022/08/22 14:09:51;;;;;;;15.68;2.83;;;28.50;61.00;;;;;;4989485;28;20507;-74